This is the latest recevied weather packets stored in our database for station/object N3MFL. If no packets are shown the sender has not sent any weather packets the latest 10 day(s).
| Time | Temp. | Humidity | Pressure | Rain* | Wind** | Luminosity | Snow |
|---|---|---|---|---|---|---|---|
| 1777741053 | 11.67° C | 77% | 1012.7 hPa | 0 mm | - | 74 W/m² | - |
| 1777740751 | 12.22° C | 76% | 1012.5 hPa | 0 mm | - | 101 W/m² | - |
| 1777740447 | 12.22° C | 75% | 1012.6 hPa | 0 mm | - | 92 W/m² | - |
| 1777740145 | 12.78° C | 73% | 1012.6 hPa | 0 mm | - | 77 W/m² | - |
| 1777739840 | 13.33° C | 71% | 1012.4 hPa | 0 mm | - | 75 W/m² | - |
| 1777739537 | 13.33° C | 69% | 1012.3 hPa | 0 mm | - | 145 W/m² | - |
| 1777739234 | 13.89° C | 68% | 1012.4 hPa | 0 mm | - | 178 W/m² | - |
| 1777738931 | 13.89° C | 67% | 1012.3 hPa | 0 mm | - | 330 W/m² | - |
| 1777738628 | 13.89° C | 66% | 1012.2 hPa | 0 mm | - | 402 W/m² | - |
| 1777738324 | 13.89° C | 65% | 1012.5 hPa | 0 mm | - | 307 W/m² | - |
| 1777738023 | 13.33° C | 65% | 1012.4 hPa | 0 mm | - | 287 W/m² | - |
| 1777737722 | 13.89° C | 68% | 1012.5 hPa | 0 mm | - | 210 W/m² | - |
| 1777737420 | 13.89° C | 68% | 1012.5 hPa | 0 mm | - | 121 W/m² | - |
| 1777737116 | 15° C | 63% | 1012.4 hPa | 0 mm | - | 225 W/m² | - |
| 1777736811 | 13.89° C | 67% | 1012.4 hPa | 0 mm | - | 992 W/m² | - |
| 1777736184 | 13.33° C | 68% | 1012.7 hPa | 0 mm | - | 194 W/m² | - |
| 1777735881 | 13.33° C | 70% | 1012.8 hPa | 0 mm | - | 230 W/m² | - |
| 1777735578 | 12.78° C | 70% | 1012.8 hPa | 0 mm | - | 229 W/m² | - |
| 1777735275 | 12.78° C | 71% | 1012.6 hPa | 0 mm | - | 116 W/m² | - |
| 1777734973 | 12.78° C | 70% | 1013.4 hPa | 0 mm | - | 92 W/m² | - |
| 1777734670 | 13.33° C | 71% | 1013 hPa | 0 mm | - | 101 W/m² | - |
| 1777734367 | 12.78° C | 70% | 1012.7 hPa | 0 mm | - | 180 W/m² | - |
| 1777734063 | 12.78° C | 72% | 1012.8 hPa | 0 mm | - | 110 W/m² | - |
| 1777733760 | 13.33° C | 70% | 1012.8 hPa | 0 mm | - | 192 W/m² | - |
| 1777733457 | 13.33° C | 73% | 1013.1 hPa | 0 mm | - | 289 W/m² | - |
* Rain latest hour (hover to see other rain measurements)
** Current wind speed in m/s (hover to see current wind gust speed)